Time;durP1;ratioP1;P1;durP2;ratioP2;P2;SDS_P1;SDS_P2;PMS_P1;PMS_P2;Temp;Humidity;BMP_temperature;BMP_pressure;BME280_temperature;BME280_humidity;BME280_pressure;Samples;Min_cycle;Max_cycle;Signal;HPM_P1;HPM_P2
2024/03/13 00:01:52;;;;;;;144.50;38.05;;;;;;;20.35;40.58;101353.75;5077631;28;20047;-75
2024/03/13 00:04:18;;;;;;;143.70;38.03;;;;;;;20.45;40.09;101351.75;5082586;28;20093;-75
2024/03/13 00:06:44;;;;;;;143.30;37.93;;;;;;;20.27;40.49;101338.72;5082491;28;20040;-76
2024/03/13 00:09:11;;;;;;;142.83;37.57;;;;;;;20.45;40.42;101355.22;5070159;28;20068;-76
2024/03/13 00:11:36;;;;;;;142.03;38.23;;;;;;;20.26;40.70;101352.13;5080053;28;20036;-76
2024/03/13 00:14:02;;;;;;;142.77;37.47;;;;;;;20.33;40.49;101361.03;5084792;28;20064;-76
2024/03/13 00:16:31;;;;;;;142.40;38.57;;;;;;;20.31;40.48;101357.75;5077244;28;20040;-76
2024/03/13 00:18:58;;;;;;;142.60;37.50;;;;;;;20.27;40.56;101364.34;5083253;28;20037;-76
2024/03/13 00:21:25;;;;;;;142.43;38.83;;;;;;;20.29;40.46;101349.13;5082808;28;20127;-76
2024/03/13 00:23:52;;;;;;;143.17;40.00;;;;;;;20.23;40.63;101358.56;5080548;28;20040;-76
2024/03/13 00:26:24;;;;;;;;;;;;;;;20.25;40.69;101361.88;5084709;28;20048;-76
2024/03/13 00:28:50;;;;;;;;;;;;;;;20.30;40.46;101362.22;5082664;28;19972;-75
2024/03/13 00:31:15;;;;;;;;;;;;;;;20.36;40.13;101366.81;5073770;28;20846;-79
2024/03/13 00:33:41;;;;;;;;;;;;;;;20.18;40.61;101366.19;5086918;28;21098;-78
2024/03/13 00:36:09;;;;;;;;;;;;;;;20.14;40.70;101364.91;5088481;28;19983;-78
2024/03/13 00:38:34;;;;;;;;;;;;;;;20.17;40.58;101365.38;5087235;28;19999;-77
2024/03/13 00:41:00;;;;;;;;;;;;;;;20.19;40.47;101352.81;5086879;28;19973;-78
2024/03/13 00:43:26;;;;;;;10.32;9.30;;;;;;;20.07;40.75;101348.84;5083753;28;24465;-77
2024/03/13 00:45:51;;;;;;;9.65;8.43;;;;;;;20.15;40.53;101350.69;5079475;28;20430;-77
2024/03/13 00:48:20;;;;;;;8.52;7.38;;;;;;;20.12;40.79;101345.72;5085789;28;20145;-77
2024/03/13 00:50:49;;;;;;;9.30;7.60;;;;;;;20.19;40.66;101350.16;5084220;28;20108;-77
2024/03/13 00:53:15;;;;;;;9.10;7.85;;;;;;;19.99;40.93;101348.88;5087828;28;20031;-77
2024/03/13 00:55:41;;;;;;;8.80;7.88;;;;;;;20.10;40.59;101345.03;5073605;28;20051;-77
2024/03/13 00:58:10;;;;;;;9.45;8.30;;;;;;;20.13;40.47;101345.56;5083955;28;20032;-77
2024/03/13 01:00:37;;;;;;;8.75;7.55;;;;;;;20.17;40.45;101349.50;5092510;28;20649;-77
2024/03/13 01:03:03;;;;;;;9.60;8.18;;;;;;;20.09;40.59;101343.41;5085845;28;20134;-77
2024/03/13 01:05:31;;;;;;;9.60;8.25;;;;;;;20.11;40.10;101325.56;5088831;28;20044;-77
2024/03/13 01:07:57;;;;;;;9.48;8.32;;;;;;;19.95;40.41;101309.75;5085404;28;20028;-77
2024/03/13 01:10:24;;;;;;;9.18;7.82;;;;;;;20.05;40.55;101331.53;5086875;28;20190;-77
2024/03/13 01:12:54;;;;;;;9.45;8.02;;;;;;;20.00;40.69;101342.59;5085023;28;20130;-77
2024/03/13 01:15:20;;;;;;;9.77;8.20;;;;;;;19.98;40.65;101346.41;5084999;28;20122;-77
2024/03/13 01:17:46;;;;;;;10.32;7.97;;;;;;;20.01;40.68;101338.97;5079023;28;20115;-78
2024/03/13 01:20:17;;;;;;;9.50;8.27;;;;;;;20.09;40.48;101335.47;5087011;28;20054;-77
2024/03/13 01:22:49;;;;;;;10.82;8.40;;;;;;;19.97;40.72;101336.84;5081144;28;20753;-77
2024/03/13 01:25:16;;;;;;;11.02;9.07;;;;;;;19.96;40.81;101321.97;5085268;28;20054;-77
2024/03/13 01:27:45;;;;;;;9.13;8.23;;;;;;;20.01;40.57;101327.56;5081335;28;20623;-77
2024/03/13 01:30:14;;;;;;;9.50;7.78;;;;;;;19.94;40.50;101324.78;5083340;28;20125;-77
2024/03/13 01:32:43;;;;;;;9.80;8.23;;;;;;;19.90;40.79;101318.16;5073493;28;20043;-76
2024/03/13 01:35:12;;;;;;;9.25;8.25;;;;;;;19.95;40.57;101317.69;5076843;28;20051;-76
2024/03/13 01:37:56;;;;;;;9.45;7.95;;;;;;;19.85;40.58;101302.81;5084612;28;20036;-76
2024/03/13 01:54:50;;;;;;;9.55;8.07;;;;;;;19.83;40.76;101311.91;5082936;28;20031;-77
2024/03/13 01:57:18;;;;;;;9.60;8.60;;;;;;;19.74;40.90;101315.53;5080311;28;20098;-77
2024/03/13 02:02:21;;;;;;;9.82;8.20;;;;;;;19.77;40.71;101310.78;5093934;27;20469;-77
2024/03/13 02:02:38;;;;;;;9.63;8.05;;;;;;;19.61;40.87;101294.94;5082432;28;20132;-77
2024/03/13 02:05:04;;;;;;;9.95;8.20;;;;;;;19.79;40.55;101326.47;5081968;28;21361;-77
2024/03/13 02:07:30;;;;;;;9.20;7.82;;;;;;;19.75;40.80;101323.31;5078989;28;20044;-76
2024/03/13 02:09:56;;;;;;;9.55;7.75;;;;;;;19.74;40.78;101311.06;5070509;28;20048;-77
2024/03/13 02:12:21;;;;;;;9.30;8.25;;;;;;;19.73;40.83;101320.00;5086207;28;20045;-77
2024/03/13 02:14:47;;;;;;;9.82;8.48;;;;;;;19.81;40.65;101311.25;5083170;28;20604;-77
2024/03/13 02:17:13;;;;;;;9.25;7.88;;;;;;;19.79;40.64;101308.78;5083976;28;20035;-76
2024/03/13 02:19:40;;;;;;;9.02;8.02;;;;;;;19.74;40.75;101294.41;5096383;27;21317;-76
2024/03/13 02:22:07;;;;;;;10.40;8.38;;;;;;;19.64;41.03;101301.69;5084283;28;20036;-77
2024/03/13 02:24:33;;;;;;;9.70;8.45;;;;;;;19.60;41.05;101314.41;5081916;28;20039;-77
2024/03/13 02:27:00;;;;;;;9.80;7.63;;;;;;;19.71;40.82;101311.41;5090069;28;20036;-76
2024/03/13 02:29:26;;;;;;;9.98;8.23;;;;;;;19.68;40.85;101305.66;5082627;28;20436;-77
2024/03/13 02:31:51;;;;;;;9.32;8.32;;;;;;;19.72;40.72;101307.78;5085950;28;20077;-77
2024/03/13 02:34:18;;;;;;;10.27;8.77;;;;;;;19.79;40.60;101316.72;5083719;28;20647;-77
2024/03/13 02:36:43;;;;;;;9.50;8.50;;;;;;;19.72;40.67;101307.78;5081324;28;20408;-77
2024/03/13 02:39:09;;;;;;;8.73;7.82;;;;;;;19.76;40.47;101308.31;5083423;28;20028;-77
2024/03/13 02:41:35;;;;;;;9.48;8.32;;;;;;;19.72;40.70;101306.97;5081431;28;20361;-77
2024/03/13 02:44:00;;;;;;;11.32;8.52;;;;;;;19.69;40.50;101294.91;5085056;28;20067;-77
2024/03/13 02:46:26;;;;;;;9.60;8.48;;;;;;;19.80;40.42;101302.50;5083884;28;20044;-77
2024/03/13 02:48:52;;;;;;;10.30;8.18;;;;;;;19.66;40.82;101300.53;5077124;28;20047;-77
2024/03/13 02:51:18;;;;;;;9.70;8.20;;;;;;;19.58;40.65;101268.84;5081250;28;20032;-76
2024/03/13 02:53:43;;;;;;;10.10;8.45;;;;;;;19.71;40.57;101292.09;5067537;28;20051;-76
2024/03/13 02:56:09;;;;;;;9.10;7.88;;;;;;;19.70;40.74;101293.91;5082117;28;20040;-76
2024/03/13 02:58:35;;;;;;;10.20;8.32;;;;;;;19.66;40.80;101281.22;5083744;28;20035;-76
2024/03/13 03:01:01;;;;;;;9.88;8.15;;;;;;;19.66;40.69;101282.03;5097963;28;20570;-76
2024/03/13 03:03:30;;;;;;;9.60;8.07;;;;;;;19.68;40.73;101272.13;5080809;28;20120;-75
2024/03/13 03:05:56;;;;;;;10.13;8.25;;;;;;;19.54;40.90;101278.91;5078811;28;20055;-77
2024/03/13 03:08:22;;;;;;;9.50;8.27;;;;;;;19.69;40.54;101271.13;5082474;28;20036;-76
2024/03/13 03:10:48;;;;;;;10.98;8.82;;;;;;;19.58;40.77;101280.25;5086085;28;20701;-76
2024/03/13 03:13:14;;;;;;;9.07;7.78;;;;;;;19.61;40.56;101269.34;5083942;28;20036;-76
2024/03/13 03:15:42;;;;;;;10.32;8.32;;;;;;;19.52;40.99;101274.75;5081552;28;20050;-76
2024/03/13 03:18:10;;;;;;;10.10;9.00;;;;;;;19.48;40.58;101255.78;5080321;28;20040;-76
2024/03/13 03:20:36;;;;;;;10.00;8.43;;;;;;;19.55;40.79;101263.88;5079821;28;20079;-76
2024/03/13 03:23:02;;;;;;;9.75;8.20;;;;;;;19.53;40.85;101268.47;5085990;28;20375;-77
2024/03/13 03:25:28;;;;;;;10.57;8.35;;;;;;;19.43;41.09;101268.66;5088017;28;20055;-76
2024/03/13 03:27:56;;;;;;;9.63;8.02;;;;;;;19.39;40.87;101248.88;5083692;28;20039;-76
2024/03/13 03:30:25;;;;;;;10.68;8.77;;;;;;;19.55;40.78;101267.34;5081951;28;20430;-76
2024/03/13 03:32:52;;;;;;;9.57;7.95;;;;;;;19.49;40.86;101262.72;5082060;28;20666;-76
2024/03/13 03:35:19;;;;;;;9.48;8.50;;;;;;;19.44;40.98;101270.31;5073805;28;20487;-76
2024/03/13 03:37:44;;;;;;;9.45;8.07;;;;;;;19.45;41.01;101277.25;5082219;28;20051;-76
2024/03/13 03:40:13;;;;;;;9.60;8.18;;;;;;;19.47;40.88;101275.25;5078797;28;20036;-76
2024/03/13 03:42:38;;;;;;;9.90;8.50;;;;;;;19.63;40.48;101271.81;5078397;28;20150;-77
2024/03/13 03:45:04;;;;;;;10.05;8.48;;;;;;;19.80;40.23;101272.59;5085654;28;20118;-76
2024/03/13 03:47:30;;;;;;;9.70;7.95;;;;;;;19.79;40.32;101266.50;5082371;28;20124;-77
2024/03/13 03:49:56;;;;;;;8.73;7.50;;;;;;;19.81;40.05;101267.16;5080805;28;20051;-76
2024/03/13 03:52:21;;;;;;;9.88;8.40;;;;;;;19.83;40.06;101264.34;5080242;28;20045;-76
2024/03/13 03:54:47;;;;;;;8.88;7.88;;;;;;;19.89;40.06;101272.41;5083706;28;20131;-77
2024/03/13 03:57:14;;;;;;;9.93;8.25;;;;;;;19.87;40.00;101270.94;5079167;28;20036;-77
2024/03/13 03:59:40;;;;;;;9.27;7.80;;;;;;;19.84;40.26;101277.38;5081175;28;20174;-76
2024/03/13 04:02:06;;;;;;;9.55;8.20;;;;;;;19.87;40.20;101271.75;5083352;28;20464;-77
2024/03/13 04:04:32;;;;;;;9.63;7.88;;;;;;;19.77;40.31;101273.78;5080766;28;20032;-77
2024/03/13 04:06:58;;;;;;;9.30;8.02;;;;;;;19.76;40.08;101258.09;5083859;28;20466;-76
2024/03/13 04:09:24;;;;;;;8.82;7.70;;;;;;;19.82;40.15;101267.97;5083618;28;20123;-76
2024/03/13 04:11:52;;;;;;;9.68;8.27;;;;;;;19.68;40.48;101255.44;5076571;28;20044;-76
2024/03/13 04:14:18;;;;;;;9.45;8.07;;;;;;;19.77;40.29;101265.84;5083647;28;20041;-76
2024/03/13 04:16:44;;;;;;;9.45;7.72;;;;;;;19.77;40.34;101263.22;5075170;28;20464;-76
2024/03/13 04:19:11;;;;;;;8.50;7.30;;;;;;;19.58;40.59;101250.38;5081471;28;20046;-76
2024/03/13 04:21:40;;;;;;;8.98;7.03;;;;;;;19.77;40.33;101263.22;5080994;28;20042;-77
2024/03/13 04:24:08;;;;;;;8.02;7.03;;;;;;;19.72;40.37;101260.22;5070946;28;20065;-76
2024/03/13 04:26:40;;;;;;;9.98;7.60;;;;;;;19.71;40.41;101261.22;5079237;28;20044;-77
2024/03/13 04:29:06;;;;;;;9.35;7.55;;;;;;;19.72;40.37;101262.88;5081339;28;20119;-77
2024/03/13 04:31:33;;;;;;;9.65;7.93;;;;;;;19.76;40.35;101260.72;5082691;28;20435;-76
2024/03/13 04:34:01;;;;;;;9.45;7.88;;;;;;;19.64;40.33;101241.75;5082477;28;20050;-76
2024/03/13 04:36:27;;;;;;;8.93;7.38;;;;;;;19.65;40.24;101247.88;5079064;28;20050;-75
2024/03/13 04:38:53;;;;;;;9.05;7.45;;;;;;;19.65;40.34;101237.28;5081489;28;20027;-76
2024/03/13 04:41:19;;;;;;;8.55;7.30;;;;;;;19.64;40.35;101244.41;5081642;28;20495;-77
2024/03/13 04:43:48;;;;;;;9.57;7.45;;;;;;;19.63;40.48;101253.31;5058411;28;20361;-76
2024/03/13 04:46:15;;;;;;;9.82;7.38;;;;;;;19.62;40.46;101259.59;5077878;28;20044;-77
2024/03/13 04:48:40;;;;;;;8.73;7.22;;;;;;;19.66;40.45;101257.44;5080604;28;20048;-77
2024/03/13 04:51:07;;;;;;;9.73;7.90;;;;;;;19.61;40.49;101258.78;5076276;28;20115;-77
2024/03/13 04:53:34;;;;;;;9.18;7.70;;;;;;;19.58;40.60;101269.69;5077611;28;20071;-76
2024/03/13 04:56:00;;;;;;;8.38;7.13;;;;;;;19.52;40.65;101265.00;5078196;28;20043;-75
2024/03/13 04:58:25;;;;;;;9.35;7.90;;;;;;;19.63;40.41;101271.00;5073357;28;20039;-77
2024/03/13 05:00:51;;;;;;;8.20;7.13;;;;;;;19.67;40.43;101269.66;5081013;28;20060;-77
2024/03/13 05:03:17;;;;;;;9.75;7.75;;;;;;;19.44;40.85;101275.59;5076289;28;20028;-76
2024/03/13 05:05:45;;;;;;;9.20;7.68;;;;;;;19.55;40.61;101272.63;5077292;28;20028;-76
2024/03/13 05:08:11;;;;;;;8.35;7.18;;;;;;;19.55;40.52;101275.28;5077223;28;20049;-76
2024/03/13 05:10:37;;;;;;;7.78;6.97;;;;;;;19.44;40.58;101266.84;5080700;28;20051;-76
2024/03/13 05:13:02;;;;;;;9.30;7.22;;;;;;;19.50;40.58;101264.34;5082340;28;20048;-75
2024/03/13 05:15:28;;;;;;;8.70;7.13;;;;;;;19.52;40.58;101259.72;5079524;28;20033;-76
2024/03/13 05:17:55;;;;;;;8.52;6.68;;;;;;;19.33;40.43;101245.06;5084311;28;20051;-76
2024/03/13 05:20:22;;;;;;;8.82;7.25;;;;;;;19.68;40.30;101268.66;5085583;28;20417;-76
2024/03/13 05:22:48;;;;;;;8.93;7.35;;;;;;;19.58;40.49;101264.41;5083156;28;20044;-76
2024/03/13 05:25:19;;;;;;;8.65;7.20;;;;;;;19.63;40.27;101265.69;5085851;28;20075;-76
2024/03/13 05:27:46;;;;;;;8.35;6.90;;;;;;;19.71;40.22;101270.97;5084922;28;20032;-76
2024/03/13 05:30:12;;;;;;;9.05;7.55;;;;;;;19.55;40.28;101254.13;5084275;28;20105;-77
2024/03/13 05:32:38;;;;;;;8.20;6.82;;;;;;;19.70;40.26;101271.97;5085909;28;20463;-77
2024/03/13 05:35:06;;;;;;;8.73;6.82;;;;;;;19.70;40.24;101269.31;5081782;28;20111;-77
2024/03/13 05:37:34;;;;;;;8.90;7.25;;;;;;;19.63;40.23;101261.25;5076694;28;20050;-76
2024/03/13 05:40:02;;;;;;;9.13;7.00;;;;;;;19.59;40.48;101268.69;5080246;28;20048;-77
2024/03/13 05:42:28;;;;;;;8.23;6.43;;;;;;;19.59;40.49;101279.25;5080127;28;20043;-77
2024/03/13 05:44:54;;;;;;;8.30;6.85;;;;;;;19.61;40.35;101281.72;5085826;28;20027;-77
2024/03/13 05:47:20;;;;;;;9.05;6.93;;;;;;;19.67;40.28;101288.16;5086201;28;20057;-77
2024/03/13 05:49:45;;;;;;;8.50;7.45;;;;;;;19.70;40.27;101280.69;5082581;28;20507;-76
2024/03/13 05:52:11;;;;;;;8.32;7.07;;;;;;;19.66;40.21;101268.00;5088802;28;20091;-76
2024/03/13 05:54:37;;;;;;;8.70;6.72;;;;;;;19.71;40.30;101276.25;5082384;28;20039;-77
2024/03/13 05:57:03;;;;;;;8.60;6.95;;;;;;;19.68;40.38;101279.22;5086610;28;20115;-77
2024/03/13 05:59:29;;;;;;;7.93;7.13;;;;;;;19.63;40.48;101268.34;5078915;28;20118;-77
2024/03/13 06:01:55;;;;;;;8.48;6.82;;;;;;;19.66;40.41;101268.00;5082392;28;20031;-77
2024/03/13 06:04:22;;;;;;;7.68;6.82;;;;;;;19.60;40.46;101258.94;5083906;28;20035;-77
2024/03/13 06:06:52;;;;;;;7.80;6.65;;;;;;;19.51;40.64;101266.00;5079599;28;20044;-77
2024/03/13 06:09:17;;;;;;;;;;;;;;;19.66;40.49;101275.94;5056875;28;20116;-77
2024/03/13 06:11:43;;;;;;;7.97;6.82;;;;;;;19.68;40.43;101266.84;5085578;28;20574;-77
2024/03/13 06:14:08;;;;;;;8.15;6.13;;;;;;;19.68;40.52;101279.22;5088565;28;20066;-77
2024/03/13 06:16:34;;;;;;;8.85;7.00;;;;;;;19.70;40.46;101283.34;5085802;28;20036;-76
2024/03/13 06:19:00;;;;;;;7.25;6.07;;;;;;;19.74;40.34;101281.19;5079071;28;20821;-77
2024/03/13 06:21:25;;;;;;;8.30;6.53;;;;;;;19.73;40.40;101276.91;5079520;28;20091;-77
2024/03/13 06:23:58;;;;;;;7.03;5.85;;;;;;;19.74;40.56;101274.09;5080514;28;20039;-76
2024/03/13 06:26:24;;;;;;;7.80;6.10;;;;;;;19.67;40.24;101272.28;5080361;28;20037;-76
2024/03/13 06:31:40;;;;;;;8.07;5.95;;;;;;;19.51;40.61;101273.94;5082737;28;20040;-77
2024/03/13 06:34:09;;;;;;;7.72;5.85;;;;;;;19.47;40.63;101264.69;5081521;28;20744;-77
2024/03/13 06:36:39;;;;;;;7.72;6.10;;;;;;;19.65;40.61;101287.50;5068448;28;20028;-77
2024/03/13 06:39:09;;;;;;;6.82;6.13;;;;;;;19.59;40.72;101289.00;5080148;28;20082;-77
2024/03/13 06:41:35;;;;;;;7.75;6.18;;;;;;;19.63;40.63;101285.03;5080773;28;20068;-77
2024/03/13 06:44:02;;;;;;;7.20;5.97;;;;;;;19.54;40.52;101278.91;5079091;28;20090;-75
2024/03/13 06:46:33;;;;;;;7.13;5.93;;;;;;;19.50;40.92;101282.03;5065284;28;20579;-77
2024/03/13 06:48:58;;;;;;;7.38;6.07;;;;;;;19.41;40.70;101248.69;5065005;28;20048;-78
2024/03/13 06:51:24;;;;;;;7.22;6.30;;;;;;;19.43;41.04;101279.22;5082335;28;20614;-77
2024/03/13 06:53:50;;;;;;;8.40;5.68;;;;;;;19.43;41.31;101268.66;5075223;28;20114;-75
2024/03/13 06:56:16;;;;;;;8.35;5.90;;;;;;;19.45;41.04;101279.06;5080592;28;20118;-79
2024/03/13 06:58:42;;;;;;;9.68;5.93;;;;;;;19.42;42.14;101287.31;5076405;28;20181;-81
2024/03/13 07:01:15;;;;;;;8.20;6.13;;;;;;;19.33;41.97;101274.09;5076947;28;20104;-80
2024/03/13 07:03:42;;;;;;;7.40;5.32;;;;;;;19.36;42.09;101287.97;5075538;28;20515;-79
2024/03/13 07:06:09;;;;;;;8.50;5.68;;;;;;;19.33;42.14;101289.13;5077918;28;20044;-78
2024/03/13 07:08:35;;;;;;;7.38;6.10;;;;;;;19.33;42.19;101282.03;5074428;28;20403;-79
2024/03/13 07:11:08;;;;;;;7.05;5.43;;;;;;;19.28;42.18;101280.88;5078658;28;20460;-78
2024/03/13 07:13:34;;;;;;;7.30;5.53;;;;;;;19.30;42.14;101287.66;5077440;28;20186;-78
2024/03/13 07:16:00;;;;;;;8.30;6.13;;;;;;;19.29;42.25;101285.16;5080379;28;20217;-78
2024/03/13 07:18:27;;;;;;;7.35;5.57;;;;;;;19.27;41.97;101264.22;5079130;28;20094;-78
2024/03/13 07:20:54;;;;;;;7.47;5.65;;;;;;;19.75;41.26;101290.75;5073784;28;20131;-78
2024/03/13 07:23:19;;;;;;;6.65;5.18;;;;;;;20.33;39.86;101285.16;5074626;28;20044;-77
2024/03/13 07:25:45;;;;;;;9.05;5.85;;;;;;;20.49;39.71;101284.31;5073992;28;20047;-79
2024/03/13 07:28:13;;;;;;;6.45;4.97;;;;;;;20.58;39.56;101283.25;5076927;28;20047;-77
2024/03/13 07:30:39;;;;;;;7.50;5.93;;;;;;;20.55;39.49;101286.25;5077390;28;20032;-79
2024/03/13 07:33:08;;;;;;;6.40;4.82;;;;;;;20.70;39.61;101284.50;5077424;28;20075;-78
2024/03/13 07:35:40;;;;;;;7.45;4.95;;;;;;;20.61;39.61;101290.00;5076107;28;20054;-78
2024/03/13 07:38:09;;;;;;;6.10;4.82;;;;;;;20.43;39.86;101274.38;5074845;28;20040;-78
2024/03/13 07:40:37;;;;;;;9.18;5.43;;;;;;;20.33;40.39;101294.91;5083874;28;20040;-66
2024/03/13 07:43:05;;;;;;;6.22;4.88;;;;;;;20.29;40.67;101299.72;5071246;28;20098;-75
2024/03/13 07:45:33;;;;;;;6.38;4.93;;;;;;;20.30;40.43;101293.44;5078549;28;20805;-74
2024/03/13 07:47:59;;;;;;;6.13;4.50;;;;;;;20.38;40.35;101287.28;5076129;28;20147;-74
2024/03/13 07:50:25;;;;;;;4.72;4.15;;;;;;;20.35;40.18;101293.75;5075009;28;20066;-73
2024/03/13 07:52:50;;;;;;;6.53;4.90;;;;;;;20.34;40.35;101302.69;5076503;28;20036;-73
2024/03/13 07:55:17;;;;;;;6.70;4.65;;;;;;;20.34;40.29;101304.50;5076659;28;20044;-73
2024/03/13 07:57:43;;;;;;;6.20;4.70;;;;;;;20.09;40.43;101274.66;5076370;28;20513;-73
2024/03/13 08:00:11;;;;;;;5.03;4.43;;;;;;;20.22;40.41;101285.53;5072195;28;20686;-73
2024/03/13 08:02:38;;;;;;;6.10;5.05;;;;;;;20.26;40.51;101299.22;5075019;28;20077;-71
2024/03/13 08:05:04;;;;;;;5.45;4.75;;;;;;;20.18;40.54;101292.97;5075281;28;20277;-73
2024/03/13 08:07:31;;;;;;;5.45;4.80;;;;;;;20.18;40.73;101300.91;5071052;28;20946;-71
2024/03/13 08:09:57;;;;;;;5.60;4.80;;;;;;;20.24;40.52;101304.69;5077581;28;20070;-71
2024/03/13 08:12:23;;;;;;;5.93;4.85;;;;;;;20.22;40.38;101309.31;5074218;28;20076;-71
2024/03/13 08:14:48;;;;;;;6.68;5.10;;;;;;;20.20;40.51;101314.78;5070709;28;20037;-72
2024/03/13 08:17:14;;;;;;;6.38;4.93;;;;;;;20.18;40.59;101315.97;5077505;28;20101;-72
2024/03/13 08:19:40;;;;;;;5.65;4.40;;;;;;;20.17;40.54;101322.25;5082536;28;20399;-73
2024/03/13 08:22:05;;;;;;;6.55;4.95;;;;;;;20.07;40.77;101322.41;5071952;28;20051;-72
2024/03/13 08:24:31;;;;;;;6.05;4.78;;;;;;;20.13;40.59;101328.88;5070400;28;20040;-72
2024/03/13 08:26:57;;;;;;;6.03;4.45;;;;;;;20.02;40.60;101313.34;5077063;28;20040;-72
2024/03/13 08:29:22;;;;;;;4.65;4.20;;;;;;;19.96;40.51;101312.22;5081597;28;20043;-72
2024/03/13 08:31:50;;;;;;;6.20;4.85;;;;;;;20.11;40.71;101320.28;5077246;28;20358;-71
2024/03/13 08:34:16;;;;;;;5.47;4.38;;;;;;;19.97;40.84;101313.03;5076922;28;20032;-72
2024/03/13 08:36:42;;;;;;;6.15;4.60;;;;;;;19.97;40.84;101311.22;5076958;28;20032;-72
2024/03/13 08:39:09;;;;;;;5.10;4.18;;;;;;;19.99;40.73;101311.06;5075062;28;20044;-72
2024/03/13 08:41:35;;;;;;;5.05;4.35;;;;;;;19.99;40.58;101314.53;5077957;28;20040;-72
2024/03/13 08:44:03;;;;;;;6.40;5.07;;;;;;;19.95;40.95;101315.84;5085347;28;20068;-71
2024/03/13 08:46:29;;;;;;;5.50;4.65;;;;;;;20.02;40.75;101322.13;5073242;28;20114;-72
2024/03/13 08:48:58;;;;;;;5.72;4.88;;;;;;;20.15;40.37;101324.25;5076158;28;20052;-70
2024/03/13 08:51:26;;;;;;;5.40;4.72;;;;;;;20.03;40.52;101307.91;5081289;28;20132;-72
2024/03/13 08:53:55;;;;;;;5.97;4.50;;;;;;;20.01;40.44;101317.00;5080840;28;20073;-72
2024/03/13 08:56:20;;;;;;;5.45;4.47;;;;;;;20.04;40.59;101330.69;5079349;28;20506;-72
2024/03/13 08:58:47;;;;;;;5.38;4.15;;;;;;;20.02;40.61;101332.69;5081968;28;20051;-72
2024/03/13 09:01:14;;;;;;;5.38;4.30;;;;;;;20.16;40.46;101331.16;5080361;28;20032;-72
2024/03/13 09:03:40;;;;;;;5.35;4.53;;;;;;;20.15;40.30;101333.00;5087011;28;20448;-72
2024/03/13 09:06:14;;;;;;;5.20;4.35;;;;;;;20.11;40.29;101341.44;5083147;28;20639;-72
2024/03/13 09:08:40;;;;;;;4.78;3.88;;;;;;;20.13;40.33;101342.09;5075440;28;20040;-71
2024/03/13 09:11:06;;;;;;;4.63;4.10;;;;;;;20.14;40.54;101336.63;5079103;28;20040;-72
2024/03/13 09:13:32;;;;;;;5.90;4.57;;;;;;;20.09;40.22;101338.09;5081241;28;20191;-74
2024/03/13 09:16:04;;;;;;;5.57;4.18;;;;;;;20.10;40.45;101330.00;5081301;28;20047;-73
2024/03/13 09:18:30;;;;;;;4.78;3.95;;;;;;;20.08;40.34;101331.19;5078031;28;20456;-73
2024/03/13 09:20:56;;;;;;;5.07;4.30;;;;;;;19.96;40.51;101322.78;5083916;28;20457;-73
2024/03/13 09:23:22;;;;;;;4.32;3.92;;;;;;;20.01;40.49;101333.69;5078203;28;20032;-73
2024/03/13 09:25:48;;;;;;;5.10;4.30;;;;;;;20.04;40.56;101343.91;5082212;28;20049;-73
2024/03/13 09:28:14;;;;;;;5.43;4.32;;;;;;;20.09;40.50;101338.09;5085551;28;20039;-72
2024/03/13 09:30:40;;;;;;;4.45;3.78;;;;;;;20.15;40.27;101340.91;5085462;28;20396;-73
2024/03/13 09:33:10;;;;;;;5.03;4.05;;;;;;;20.19;40.26;101342.22;5081531;28;20043;-73
2024/03/13 09:35:35;;;;;;;4.43;3.70;;;;;;;20.17;40.38;101341.56;5088476;28;20535;-72
2024/03/13 09:38:01;;;;;;;5.32;4.30;;;;;;;20.17;40.28;101338.94;5081925;28;20178;-72
2024/03/13 09:40:27;;;;;;;4.90;3.95;;;;;;;20.22;40.28;101349.00;5079705;28;20063;-73
2024/03/13 09:42:54;;;;;;;4.80;4.13;;;;;;;20.11;40.39;101336.16;5082594;28;20116;-72
2024/03/13 09:45:25;;;;;;;4.45;3.90;;;;;;;20.11;40.48;101349.38;5079737;28;20045;-73
2024/03/13 09:47:50;;;;;;;;;;;;;;;20.16;40.47;101349.69;5080520;28;20052;-73
2024/03/13 09:50:16;;;;;;;4.82;4.00;;;;;;;20.13;40.45;101350.84;5081289;28;19920;-73
2024/03/13 09:52:42;;;;;;;4.88;4.38;;;;;;;20.15;40.37;101350.69;5079887;28;20032;-73
2024/03/13 09:55:12;;;;;;;5.00;3.97;;;;;;;20.14;40.43;101343.75;5080219;28;20040;-73
2024/03/13 09:57:39;;;;;;;5.05;3.80;;;;;;;20.19;40.23;101351.97;5084081;28;20040;-72
2024/03/13 10:00:18;;;;;;;4.85;4.07;;;;;;;20.11;40.47;101344.91;5082132;28;22016;-73
2024/03/13 10:10:18;;;;;;;4.00;3.50;;;;;;;20.13;40.43;101358.78;5076838;28;20036;-73
2024/03/13 10:12:46;;;;;;;4.75;4.00;;;;;;;20.12;40.32;101343.91;5078177;28;20040;-73
2024/03/13 10:15:15;;;;;;;4.13;3.10;;;;;;;20.22;40.28;101368.31;5083382;28;20100;-73
2024/03/13 10:17:44;;;;;;;4.80;3.80;;;;;;;20.27;40.17;101373.09;5083057;28;20039;-72
2024/03/13 10:20:16;;;;;;;4.38;3.83;;;;;;;20.25;40.26;101363.69;5083320;28;20043;-73
2024/03/13 10:22:45;;;;;;;4.03;3.40;;;;;;;20.22;40.38;101367.50;5081591;28;20479;-73
2024/03/13 10:25:15;;;;;;;4.80;4.13;;;;;;;20.22;40.18;101370.16;5085860;28;20044;-73
2024/03/13 10:27:42;;;;;;;4.55;3.60;;;;;;;20.23;40.14;101369.97;5079054;28;20036;-73
2024/03/13 10:30:12;;;;;;;4.43;3.95;;;;;;;20.17;40.38;101365.38;5077986;28;20393;-73
2024/03/13 10:32:40;;;;;;;4.43;3.53;;;;;;;20.11;40.60;101375.81;5097483;28;20334;-73
2024/03/13 10:35:10;;;;;;;4.70;3.78;;;;;;;20.12;40.49;101378.28;5080506;28;20088;-72
2024/03/13 10:37:36;;;;;;;4.20;3.80;;;;;;;20.12;40.38;101370.34;5080772;28;20482;-73
2024/03/13 10:40:07;;;;;;;3.95;3.50;;;;;;;20.23;40.34;101369.97;5080514;28;20047;-74
2024/03/13 10:42:33;;;;;;;3.70;3.25;;;;;;;20.15;40.44;101375.31;5079115;28;20079;-73
2024/03/13 10:45:04;;;;;;;3.53;3.20;;;;;;;20.09;40.50;101375.94;5079213;28;20489;-73
2024/03/13 10:47:30;;;;;;;4.30;3.42;;;;;;;20.07;40.62;101372.66;5091746;28;20312;-73
2024/03/13 10:49:56;;;;;;;5.30;3.72;;;;;;;20.14;40.47;101375.47;5077879;28;20046;-73
2024/03/13 10:52:22;;;;;;;4.18;3.42;;;;;;;20.19;40.36;101375.78;5083204;28;20040;-73
2024/03/13 10:54:48;;;;;;;3.78;3.10;;;;;;;20.00;40.49;101352.34;5081239;28;20059;-73
2024/03/13 10:57:17;;;;;;;4.00;3.60;;;;;;;20.16;40.56;101376.13;5078945;28;20044;-74
2024/03/13 10:59:46;;;;;;;4.57;3.72;;;;;;;20.13;40.54;101377.28;5078878;28;20048;-72
2024/03/13 11:02:13;;;;;;;3.70;3.30;;;;;;;20.17;40.52;101375.13;5080812;28;20035;-73
2024/03/13 11:04:40;;;;;;;4.05;3.47;;;;;;;20.18;40.38;101372.31;5080284;28;20040;-73
2024/03/13 11:07:18;;;;;;;4.05;3.42;;;;;;;20.19;40.16;101373.97;5075361;28;20036;-73
2024/03/13 11:09:44;;;;;;;4.50;3.45;;;;;;;20.13;40.28;101357.97;5076746;28;20048;-73
2024/03/13 11:12:19;;;;;;;3.53;3.20;;;;;;;20.30;40.28;101378.09;5079399;28;20332;-73
2024/03/13 11:14:51;;;;;;;4.10;3.22;;;;;;;20.23;40.21;101377.91;5082859;28;20529;-73
2024/03/13 11:17:21;;;;;;;3.55;3.17;;;;;;;20.15;40.31;101361.25;5076026;28;20032;-73
2024/03/13 11:19:48;;;;;;;;;;;;;;;20.29;40.25;101371.16;5076774;28;20051;-73
2024/03/13 11:22:14;;;;;;;4.57;3.80;;;;;;;20.28;40.39;101376.56;5081274;28;20011;-73
2024/03/13 11:24:41;;;;;;;4.10;3.38;;;;;;;20.17;40.48;101377.78;5077532;28;20033;-73
2024/03/13 11:27:18;;;;;;;3.92;3.30;;;;;;;20.28;40.29;101379.22;5077680;28;20766;-73
2024/03/13 11:29:49;;;;;;;4.05;3.30;;;;;;;20.19;40.49;101381.06;5078995;28;20032;-72
2024/03/13 11:32:15;;;;;;;4.15;3.55;;;;;;;20.25;40.12;101382.22;5078890;28;20024;-73
2024/03/13 11:34:42;;;;;;;4.30;3.50;;;;;;;20.21;40.46;101387.00;5075175;28;21345;-73
2024/03/13 11:37:10;;;;;;;4.38;3.40;;;;;;;20.23;40.47;101380.56;5079752;28;20040;-73
2024/03/13 11:39:41;;;;;;;3.70;3.30;;;;;;;20.16;40.37;101376.13;5079931;28;20054;-72
2024/03/13 11:42:17;;;;;;;3.78;3.22;;;;;;;20.22;40.42;101386.00;5081279;28;20090;-73
2024/03/13 11:44:44;;;;;;;3.80;3.25;;;;;;;20.15;40.40;101382.41;5087666;28;20403;-73
2024/03/13 11:47:11;;;;;;;4.20;3.17;;;;;;;20.19;40.46;101381.91;5078207;28;20396;-73
2024/03/13 11:49:40;;;;;;;3.40;3.10;;;;;;;20.07;40.45;101372.66;5078977;28;20070;-73
2024/03/13 11:52:09;;;;;;;3.38;3.08;;;;;;;20.15;40.61;101385.06;5076672;28;20123;-73